createdAt,value
2022-11-10T00:04:55.162Z,100.00
2022-11-10T00:10:17.244Z,100.00
2022-11-10T00:15:39.006Z,100.00
2022-11-10T00:21:05.873Z,100.00
2022-11-10T00:26:27.682Z,100.00
2022-11-10T00:31:49.667Z,100.00
2022-11-10T00:37:11.754Z,100.00
2022-11-10T00:42:33.617Z,100.00
2022-11-10T00:47:55.447Z,100.00
2022-11-10T00:53:17.226Z,100.00
2022-11-10T00:58:39.013Z,100.00
2022-11-10T01:04:00.899Z,100.00
2022-11-10T01:09:22.730Z,100.00
2022-11-10T01:14:47.642Z,100.00
2022-11-10T01:20:10.361Z,100.00
2022-11-10T01:25:32.163Z,100.00
2022-11-10T01:31:01.939Z,100.00
2022-11-10T01:36:23.829Z,100.00
2022-11-10T01:41:45.744Z,100.00
2022-11-10T01:47:08.009Z,100.00
2022-11-10T01:52:29.942Z,100.00
2022-11-10T01:57:52.062Z,100.00
2022-11-10T02:03:16.574Z,100.00
2022-11-10T02:08:38.728Z,100.00
2022-11-10T02:14:01.106Z,100.00
2022-11-10T02:19:25.170Z,100.00
2022-11-10T02:24:47.164Z,100.00
2022-11-10T02:30:09.383Z,100.00
2022-11-10T02:35:31.207Z,100.00
2022-11-10T02:40:53.081Z,100.00
2022-11-10T02:46:14.931Z,100.00
2022-11-10T02:51:36.840Z,100.00
2022-11-10T02:56:58.638Z,100.00
2022-11-10T03:02:20.478Z,100.00
2022-11-10T03:07:42.589Z,100.00
2022-11-10T03:13:04.603Z,100.00
2022-11-10T03:18:26.472Z,100.00
2022-11-10T03:23:48.323Z,100.00
2022-11-10T03:29:10.088Z,100.00
2022-11-10T03:34:32.126Z,100.00
2022-11-10T03:39:53.995Z,100.00
2022-11-10T03:45:16.098Z,100.00
2022-11-10T03:50:38.018Z,100.00
2022-11-10T03:56:01.273Z,100.00
2022-11-10T04:01:23.352Z,100.00
2022-11-10T04:06:45.216Z,100.00
2022-11-10T04:12:07.091Z,100.00
2022-11-10T04:17:28.934Z,100.00
2022-11-10T04:22:50.776Z,100.00
2022-11-10T04:28:12.593Z,100.00
2022-11-10T04:33:35.607Z,100.00
2022-11-10T04:38:57.989Z,100.00
2022-11-10T04:44:19.794Z,100.00
2022-11-10T04:49:41.593Z,100.00
2022-11-10T04:55:03.592Z,100.00
2022-11-10T05:00:25.449Z,100.00
2022-11-10T05:05:47.280Z,100.00
2022-11-10T05:11:10.198Z,100.00
2022-11-10T05:16:32.021Z,100.00
2022-11-10T05:21:53.899Z,100.00
2022-11-10T05:27:15.776Z,100.00
2022-11-10T05:32:37.721Z,100.00
2022-11-10T05:37:59.561Z,100.00
2022-11-10T05:43:21.826Z,100.00
2022-11-10T05:48:44.013Z,100.00
2022-11-10T05:54:05.885Z,100.00
2022-11-10T05:59:27.663Z,100.00
2022-11-10T06:04:49.462Z,100.00
2022-11-10T06:10:11.266Z,100.00
2022-11-10T06:15:33.755Z,100.00
2022-11-10T06:27:22.579Z,100.00
2022-11-10T06:32:57.142Z,100.00
2022-11-10T06:38:18.873Z,100.00
2022-11-10T06:43:40.672Z,100.00
2022-11-10T06:49:02.535Z,100.00
2022-11-10T06:54:24.308Z,100.00
2022-11-10T06:59:46.132Z,100.00
2022-11-10T07:05:08.532Z,100.00
2022-11-10T07:10:30.742Z,100.00
2022-11-10T07:15:52.519Z,100.00
2022-11-10T07:21:14.636Z,100.00
2022-11-10T07:26:36.481Z,100.00
2022-11-10T07:31:58.274Z,100.00
2022-11-10T07:37:20.080Z,100.00
2022-11-10T07:42:41.921Z,100.00
2022-11-10T07:48:06.680Z,100.00
2022-11-10T07:53:28.468Z,100.00
2022-11-10T07:58:50.249Z,100.00
2022-11-10T08:04:12.105Z,100.00
2022-11-10T08:09:34.779Z,100.00
2022-11-10T08:14:56.578Z,100.00
2022-11-10T08:20:18.434Z,100.00
2022-11-10T08:25:40.889Z,100.00
2022-11-10T08:31:05.788Z,100.00
2022-11-10T08:36:28.209Z,100.00
2022-11-10T08:41:50.032Z,100.00
2022-11-10T08:47:11.889Z,100.00
2022-11-10T08:52:33.789Z,100.00
2022-11-10T08:58:00.191Z,100.00
2022-11-10T09:03:25.080Z,100.00
2022-11-10T09:08:47.178Z,100.00
2022-11-10T09:14:09.898Z,100.00
2022-11-10T09:19:31.794Z,100.00
2022-11-10T09:24:53.609Z,100.00
2022-11-10T09:30:17.936Z,100.00
2022-11-10T09:35:40.168Z,100.00
2022-11-10T09:41:07.102Z,100.00
2022-11-10T09:46:37.267Z,100.00
2022-11-10T09:52:01.853Z,100.00
2022-11-10T09:57:26.732Z,100.00
2022-11-10T10:02:53.807Z,100.00
2022-11-10T10:08:31.872Z,100.00
2022-11-10T10:14:09.974Z,100.00
2022-11-10T10:19:57.499Z,100.00
2022-11-10T10:25:23.574Z,100.00
2022-11-10T10:30:45.652Z,100.00
2022-11-10T10:36:15.245Z,100.00
2022-11-10T10:41:37.448Z,100.00
2022-11-10T10:47:01.561Z,100.00
2022-11-10T10:52:23.429Z,100.00
2022-11-10T10:57:56.665Z,100.00
2022-11-10T11:03:49.793Z,100.00
2022-11-10T11:09:14.646Z,100.00
2022-11-10T11:14:38.655Z,100.00
2022-11-10T11:20:04.116Z,100.00
2022-11-10T11:25:34.233Z,100.00
2022-11-10T11:31:19.339Z,100.00
2022-11-10T11:37:15.290Z,100.00
2022-11-10T11:43:01.589Z,100.00
2022-11-10T11:48:32.444Z,100.00
2022-11-10T11:53:56.848Z,100.00
2022-11-10T11:59:55.426Z,100.00
2022-11-10T12:05:23.397Z,100.00
2022-11-10T12:11:07.875Z,100.00
2022-11-10T12:16:31.944Z,100.00
2022-11-10T12:22:11.790Z,99.89
2022-11-10T12:27:38.382Z,99.89
2022-11-10T12:33:20.385Z,98.97
2022-11-10T12:39:00.567Z,98.72
2022-11-10T12:44:37.199Z,99.17
2022-11-10T12:50:09.733Z,99.60
2022-11-10T12:55:50.634Z,100.00
2022-11-10T13:01:18.787Z,99.18
2022-11-10T13:06:49.260Z,99.48
2022-11-10T13:12:11.070Z,100.00
2022-11-10T13:17:38.925Z,100.00
2022-11-10T13:23:00.701Z,100.00
2022-11-10T13:28:47.094Z,99.76
2022-11-10T13:34:12.695Z,100.00
2022-11-10T13:39:34.580Z,100.00
2022-11-10T13:45:34.678Z,100.00
2022-11-10T13:51:34.237Z,99.68
2022-11-10T13:57:33.564Z,100.00
2022-11-10T14:02:57.755Z,100.00
2022-11-10T14:08:24.776Z,100.00
2022-11-10T14:13:55.544Z,100.00
2022-11-10T14:19:44.360Z,100.00
2022-11-10T14:25:33.564Z,100.00
2022-11-10T14:30:55.962Z,100.00
2022-11-10T14:36:18.565Z,100.00
2022-11-10T14:41:47.979Z,100.00
2022-11-10T14:47:30.038Z,100.00
2022-11-10T14:53:11.596Z,100.00
2022-11-10T14:58:37.941Z,100.00
2022-11-10T15:04:01.751Z,100.00
2022-11-10T15:09:30.612Z,100.00
2022-11-10T15:15:00.180Z,100.00
2022-11-10T15:20:36.843Z,100.00
2022-11-10T15:25:58.681Z,100.00
2022-11-10T15:31:29.319Z,100.00
2022-11-10T15:37:11.430Z,100.00
2022-11-10T15:42:33.232Z,100.00
2022-11-10T15:47:55.847Z,100.00
2022-11-10T15:53:24.746Z,100.00
2022-11-10T15:58:51.611Z,100.00
2022-11-10T16:04:13.478Z,100.00
2022-11-10T16:09:35.275Z,100.00
2022-11-10T16:14:57.234Z,100.00
2022-11-10T16:20:19.057Z,100.00
2022-11-10T16:25:41.629Z,100.00
2022-11-10T16:31:05.877Z,100.00
2022-11-10T16:36:34.447Z,100.00
2022-11-10T16:41:56.338Z,100.00
2022-11-10T16:47:19.385Z,100.00
2022-11-10T16:52:41.185Z,100.00
2022-11-10T16:58:03.057Z,100.00
2022-11-10T17:03:38.649Z,100.00
2022-11-10T17:09:07.975Z,100.00
2022-11-10T17:14:29.775Z,100.00
2022-11-10T17:19:51.705Z,100.00
2022-11-10T17:25:23.332Z,100.00
2022-11-10T17:30:45.205Z,100.00
2022-11-10T17:36:14.741Z,100.00
2022-11-10T17:41:36.563Z,100.00
2022-11-10T17:46:58.414Z,100.00
2022-11-10T17:52:20.242Z,100.00
2022-11-10T17:57:42.038Z,100.00
2022-11-10T18:03:03.820Z,100.00
2022-11-10T18:08:25.775Z,100.00
2022-11-10T18:13:47.584Z,100.00
2022-11-10T18:19:11.079Z,100.00
2022-11-10T18:24:32.900Z,100.00
2022-11-10T18:29:54.777Z,100.00
2022-11-10T18:35:16.650Z,100.00
2022-11-10T18:40:38.444Z,100.00
2022-11-10T18:46:00.278Z,100.00
2022-11-10T18:51:22.064Z,100.00
2022-11-10T18:56:43.899Z,100.00
2022-11-10T19:02:05.759Z,100.00
2022-11-10T19:07:27.529Z,100.00
2022-11-10T19:12:49.334Z,100.00
2022-11-10T19:18:11.098Z,100.00
2022-11-10T19:23:33.300Z,100.00
2022-11-10T19:28:55.994Z,100.00
2022-11-10T19:34:17.815Z,100.00
2022-11-10T19:39:39.630Z,100.00
2022-11-10T19:45:01.652Z,100.00
2022-11-10T19:50:23.510Z,100.00
2022-11-10T19:55:45.377Z,100.00
2022-11-10T20:01:08.066Z,100.00
2022-11-10T20:06:30.087Z,100.00
2022-11-10T20:11:51.925Z,100.00
2022-11-10T20:17:13.847Z,100.00
2022-11-10T20:22:35.726Z,100.00
2022-11-10T20:27:58.256Z,100.00
2022-11-10T20:33:21.690Z,100.00
2022-11-10T20:38:43.971Z,100.00
2022-11-10T20:44:05.783Z,100.00
2022-11-10T20:49:27.666Z,100.00
2022-11-10T20:54:49.714Z,100.00
2022-11-10T21:00:11.868Z,100.00
2022-11-10T21:05:33.638Z,100.00
2022-11-10T21:11:01.426Z,100.00
2022-11-10T21:16:23.248Z,100.00
2022-11-10T21:21:45.047Z,100.00
2022-11-10T21:27:06.921Z,100.00
2022-11-10T21:32:28.736Z,100.00
2022-11-10T21:37:50.519Z,100.00
2022-11-10T21:43:12.283Z,100.00
2022-11-10T21:48:34.961Z,100.00
2022-11-10T21:53:56.779Z,100.00
2022-11-10T21:59:18.591Z,100.00
2022-11-10T22:04:40.470Z,100.00
2022-11-10T22:10:02.264Z,100.00
2022-11-10T22:15:24.309Z,100.00
2022-11-10T22:20:46.317Z,100.00
2022-11-10T22:26:08.121Z,100.00
2022-11-10T22:31:32.918Z,100.00
2022-11-10T22:36:54.758Z,100.00
2022-11-10T22:42:16.545Z,100.00
2022-11-10T22:47:38.566Z,100.00
2022-11-10T22:53:00.342Z,100.00
2022-11-10T22:58:22.114Z,100.00
2022-11-10T23:03:43.984Z,100.00
2022-11-10T23:09:06.057Z,100.00
2022-11-10T23:14:27.847Z,100.00
2022-11-10T23:19:49.685Z,100.00
2022-11-10T23:25:11.490Z,100.00
2022-11-10T23:30:33.300Z,100.00
2022-11-10T23:35:55.143Z,100.00
2022-11-10T23:41:19.278Z,100.00
2022-11-10T23:46:41.075Z,100.00
2022-11-10T23:52:02.921Z,100.00
2022-11-10T23:57:24.852Z,100.00
